Grand Forks, ND

8:46 AM CDT on July 13, 2014 (GMT -0500)
Crookston Municipal-Kirkwood (KCKN) Elev 899 ft | 47.84 °N, 96.62 °W | Change Station

Current weather conditions updated 11 minutes ago

Clear
Clear
57 °F
Feels Like 57 °F
N
12
Wind Variable Wind from WNW

Today is forecast to be Much Cooler than yesterday.

Today
High -- | Low -- °F
--% Chance of Precip.
Yesterday
High -- | Low -- °F
Precip. -- in
5:42 AM 9:24 PM
Full, 98% visible
Pressure 29.96 in
Visibility 10.0 miles
Clouds Clear
Dew Point 52 °F
Humidity 82%
Rainfall 0.01 in
Snow Depth Not available.
UV 2 out of 12
Pollen 4.70 out of 12
Air Quality Not available.
Flu Activity Sporadic
METAR KCKN 131335Z AUTO 30010KT 10SM CLR 14/11 A2996 RMK AO2

More Conditions Fewer Conditions

Pressure 29.96 in
Visibility 10.0 miles
Clouds Clear
Dew Point 52 °F
Humidity 82%
Rainfall 0.01 in
Snow Depth Not available.
UV 2 out of 12
Pollen 4.70 out of 12
Air Quality Not available.
Flu Activity Sporadic
METAR KCKN 131335Z AUTO 30010KT 10SM CLR 14/11 A2996 RMK AO2

More Conditions Fewer Conditions

10-Day Weather Forecast

Almanac

Astronomy

Jul. 13, 2014 Rise Set
Actual Time 5:42 AM CDT 9:24 PM CDT
Civil Twilight 5:03 AM CDT 10:03 PM CDT
Nautical Twilight 4:09 AM CDT 10:56 PM CDT
Astronomical Twilight 2:53 AM CDT 12:11 AM CDT
Moon 9:59 PM CDT 7:25 AM CDT
Length of Visible Light 17h 00m
Length of Day
15h 41m
Tomorrow will be 1m 46s shorter.
Full, 98% of the Moon is Illuminated
Today
Full
Jul 18
Last Quarter
Jul 26
New
Aug 3
First Quarter
Aug 10
Full

Today's Extremes

State Highs State Lows

Community

WunderPhotos

Upload Photos

1,733,185 photos uploaded!

Nearby

Snow Depth

Station Depth Elevation
No new snow has been reported.

Earthquake Activity

City Distance Mag. Time & Date
No recent earthquake activity has been reported nearby.
Minimum magnitude displayed is 2.5.

Coastal Water Temperatures

Place Temperature
No Stations Reporting

Nearby Weather Stations

There are no personal weather stations in this area.